Austin, Canada
Current Conditions -  °F | °C
As of 8:00 AM on Friday 24 Oct 2014 (Local Time) from CYPG Reporting Station
Broken Clouds Broken Clouds  
Wind Chill: 52°   Ceiling: 14000
Heat Index: 52°   Visibility: 15mi
Dew Point: 39°   Wind: 16mph
Humidity: 62%   Direction: 230°SW
Pressure: 29.65"   Gusts: 22mph
Location:  49.95°N, 98.93°W
Report Text: CYPG 241300Z 23014G19KT 15SM BKN140 BKN210 11/04 A2965 RMKAC6CI2 VIRGA NE SLP047
Loading
Personal Weather Stations






























Interactive Weather Map
Tropical Storm Tracking
New forecast layout! Learn more

10-Day Weather Forecast

Advertisements
Track Severe Weather on mobile